Terminal Aerodrome Forecast
Issued by NWS Charleston, WV

Current Version | Previous Version | Text Only | Print | Product List | Glossary Off
Versions: 1 2 3 4 5 6 7 8 9 10 11 12 13 14 15 16 17 18 19 20 21 22

000
FTUS41 KRLX 271500 AAA
TAFEKN
TAF AMD
KEKN 271537Z 2716/2812 32005KT P6SM BKN024
      TEMPO 2716/2718 5SM -SHSN
     FM272300 00000KT P6SM SCT030
     FM281100 VRB03KT 6SM FU SCT100=

USA.gov is the U.S. government's official web portal to all federal, state and local government web resources and services.